Time;durP1;ratioP1;P1;durP2;ratioP2;P2;SDS_P1;SDS_P2;PMS_P1;PMS_P2;Temp;Humidity;BMP_temperature;BMP_pressure;BME280_temperature;BME280_humidity;BME280_pressure;Samples;Min_cycle;Max_cycle;Signal;HPM_P1;HPM_P2
2024/03/13 00:01:54;;;;;;;24.47;16.20;;;;;;;;;;4956729;29;20908;-78
2024/03/13 00:04:20;;;;;;;28.40;16.63;;;;;;;;;;4956364;29;20440;-84
2024/03/13 00:06:47;;;;;;;25.60;14.60;;;;;;;;;;4956698;29;20419;-83
2024/03/13 00:09:16;;;;;;;26.37;16.53;;;;;;;;;;4957047;29;20413;-83
2024/03/13 00:11:42;;;;;;;26.53;16.40;;;;;;;;;;4955529;29;20776;-82
2024/03/13 00:14:09;;;;;;;24.87;15.10;;;;;;;;;;4955354;29;20424;-76
2024/03/13 00:16:35;;;;;;;27.40;16.70;;;;;;;;;;4964990;28;20416;-85
2024/03/13 00:19:03;;;;;;;27.20;16.80;;;;;;;;;;4974353;28;20436;-78
2024/03/13 00:21:35;;;;;;;30.80;19.00;;;;;;;;;;4976072;28;20407;-78
2024/03/13 00:24:02;;;;;;;29.73;16.67;;;;;;;;;;4976065;28;20438;-77
2024/03/13 00:26:28;;;;;;;26.77;16.50;;;;;;;;;;4975770;28;20470;-77
2024/03/13 00:28:54;;;;;;;25.80;16.67;;;;;;;;;;4975840;28;20427;-76
2024/03/13 00:31:20;;;;;;;28.17;18.47;;;;;;;;;;4975793;28;20181;-79
2024/03/13 00:33:46;;;;;;;28.30;17.30;;;;;;;;;;4975436;28;20177;-76
2024/03/13 00:36:12;;;;;;;26.30;16.03;;;;;;;;;;4975642;28;20509;-77
2024/03/13 00:38:38;;;;;;;30.40;17.60;;;;;;;;;;4975574;28;20604;-78
2024/03/13 00:41:04;;;;;;;30.50;18.40;;;;;;;;;;4975504;28;20415;-77
2024/03/13 00:43:30;;;;;;;25.40;16.37;;;;;;;;;;4975649;28;20954;-78
2024/03/13 00:45:56;;;;;;;29.80;18.03;;;;;;;;;;4975419;28;20428;-77
2024/03/13 00:48:22;;;;;;;30.00;17.17;;;;;;;;;;4975063;28;20425;-78
2024/03/13 00:50:48;;;;;;;30.07;18.27;;;;;;;;;;4975278;28;20769;-77
2024/03/13 00:53:14;;;;;;;28.53;17.13;;;;;;;;;;4975225;28;20430;-77
2024/03/13 00:55:41;;;;;;;28.10;16.67;;;;;;;;;;4975296;28;20436;-82
2024/03/13 00:58:08;;;;;;;27.17;15.33;;;;;;;;;;4975346;28;20481;-79
2024/03/13 01:00:37;;;;;;;25.50;15.37;;;;;;;;;;4975834;28;20408;-88
2024/03/13 01:03:03;;;;;;;24.80;16.97;;;;;;;;;;4975656;28;20480;-79
2024/03/13 01:05:30;;;;;;;30.83;17.70;;;;;;;;;;4974841;28;20505;-81
2024/03/13 01:07:56;;;;;;;28.37;17.23;;;;;;;;;;4975006;28;20430;-83
2024/03/13 01:10:24;;;;;;;25.00;17.20;;;;;;;;;;4975170;28;20850;-81
2024/03/13 01:12:50;;;;;;;27.83;17.20;;;;;;;;;;4975107;28;20528;-80
2024/03/13 01:15:16;;;;;;;30.73;18.40;;;;;;;;;;4974755;28;20504;-79
2024/03/13 01:17:42;;;;;;;26.00;16.70;;;;;;;;;;4973444;28;20568;-77
2024/03/13 01:20:09;;;;;;;27.47;16.33;;;;;;;;;;4974468;28;20405;-81
2024/03/13 01:22:37;;;;;;;30.13;17.33;;;;;;;;;;4974913;28;20418;-80
2024/03/13 01:25:05;;;;;;;27.40;17.33;;;;;;;;;;4974942;28;20422;-76
2024/03/13 01:27:31;;;;;;;27.60;17.47;;;;;;;;;;4974077;28;20852;-77
2024/03/13 01:29:57;;;;;;;29.37;16.47;;;;;;;;;;4974567;28;20417;-76
2024/03/13 01:32:23;;;;;;;23.97;15.93;;;;;;;;;;4974587;28;20416;-76
2024/03/13 01:34:49;;;;;;;24.90;15.43;;;;;;;;;;4974259;28;20413;-76
2024/03/13 01:40:04;;;;;;;18.97;13.50;;;;;;;;;;4974724;28;20496;-76
2024/03/13 01:56:27;;;;;;;35.13;16.23;;;;;;;;;;4973527;28;20677;-78
2024/03/13 01:59:09;;;;;;;27.30;14.30;;;;;;;;;;4971950;28;20842;-77
2024/03/13 02:04:20;;;;;;;27.90;16.30;;;;;;;;;;4971757;28;20922;-77
2024/03/13 02:06:47;;;;;;;27.50;16.00;;;;;;;;;;4973789;28;20400;-77
2024/03/13 02:09:13;;;;;;;26.40;16.87;;;;;;;;;;4973780;28;20416;-77
2024/03/13 02:11:39;;;;;;;31.47;17.67;;;;;;;;;;4974050;28;20769;-78
2024/03/13 02:14:06;;;;;;;29.50;17.90;;;;;;;;;;4974336;28;20487;-82
2024/03/13 02:16:32;;;;;;;31.37;21.00;;;;;;;;;;4974274;28;20438;-78
2024/03/13 02:18:59;;;;;;;32.93;19.10;;;;;;;;;;4973982;28;20433;-77
2024/03/13 02:21:25;;;;;;;29.67;18.70;;;;;;;;;;4974287;28;20900;-83
2024/03/13 02:23:51;;;;;;;34.43;20.90;;;;;;;;;;4974281;28;20466;-79
2024/03/13 02:26:18;;;;;;;30.17;18.73;;;;;;;;;;4974190;28;20461;-80
2024/03/13 02:28:44;;;;;;;38.40;20.67;;;;;;;;;;4974419;28;20768;-81
2024/03/13 02:31:10;;;;;;;31.13;19.40;;;;;;;;;;4974303;28;20418;-78
2024/03/13 02:33:36;;;;;;;30.60;18.50;;;;;;;;;;4973825;28;20412;-81
2024/03/13 02:36:03;;;;;;;36.83;21.70;;;;;;;;;;4974104;28;20433;-77
2024/03/13 02:38:29;;;;;;;34.73;19.80;;;;;;;;;;4973156;28;20477;-82
2024/03/13 02:40:56;;;;;;;32.77;18.83;;;;;;;;;;4978034;28;20409;-79
2024/03/13 02:43:22;;;;;;;30.13;18.90;;;;;;;;;;4977708;28;20427;-77
2024/03/13 02:45:48;;;;;;;31.37;20.63;;;;;;;;;;4977866;28;20400;-77
2024/03/13 02:48:16;;;;;;;32.40;17.60;;;;;;;;;;4977413;28;20432;-77
2024/03/13 02:50:42;;;;;;;25.67;17.10;;;;;;;;;;4977700;28;20740;-77
2024/03/13 02:53:08;;;;;;;30.27;17.80;;;;;;;;;;4976467;28;20421;-77
2024/03/13 02:55:37;;;;;;;32.70;18.37;;;;;;;;;;4977270;28;20426;-78
2024/03/13 02:58:03;;;;;;;34.27;19.90;;;;;;;;;;4977831;28;20475;-79
2024/03/13 03:00:29;;;;;;;28.90;18.43;;;;;;;;;;4977598;28;20510;-77
2024/03/13 03:02:56;;;;;;;25.43;16.80;;;;;;;;;;4977252;28;20447;-77
2024/03/13 03:05:22;;;;;;;28.67;16.53;;;;;;;;;;4977496;28;20406;-76
2024/03/13 03:07:48;;;;;;;26.60;16.10;;;;;;;;;;4977370;28;20417;-78
2024/03/13 03:10:14;;;;;;;28.77;16.10;;;;;;;;;;4977111;28;20853;-78
2024/03/13 03:12:42;;;;;;;38.33;18.97;;;;;;;;;;4977227;28;20412;-77
2024/03/13 03:15:08;;;;;;;37.60;19.77;;;;;;;;;;4978701;28;20412;-77
2024/03/13 03:17:34;;;;;;;32.43;19.57;;;;;;;;;;4977567;28;20475;-79
2024/03/13 03:20:00;;;;;;;31.03;19.57;;;;;;;;;;4977130;28;20409;-78
2024/03/13 03:22:26;;;;;;;32.27;18.67;;;;;;;;;;4977105;28;20429;-79
2024/03/13 03:24:52;;;;;;;30.20;19.20;;;;;;;;;;4977121;28;20431;-78
2024/03/13 03:27:18;;;;;;;31.37;18.00;;;;;;;;;;4976738;28;20899;-77
2024/03/13 03:29:45;;;;;;;27.40;16.87;;;;;;;;;;4976891;28;20931;-78
2024/03/13 03:32:10;;;;;;;34.03;18.53;;;;;;;;;;4976910;28;20508;-76
2024/03/13 03:34:39;;;;;;;34.77;20.03;;;;;;;;;;4976576;28;20843;-77
2024/03/13 03:37:05;;;;;;;36.00;19.57;;;;;;;;;;4976769;28;20868;-76
2024/03/13 03:39:33;;;;;;;30.17;19.07;;;;;;;;;;4976794;28;20507;-76
2024/03/13 03:42:02;;;;;;;34.53;20.13;;;;;;;;;;4975516;28;20420;-77
2024/03/13 03:44:29;;;;;;;35.03;17.30;;;;;;;;;;4976727;28;20784;-77
2024/03/13 03:46:55;;;;;;;34.20;19.93;;;;;;;;;;4975685;28;20774;-83
2024/03/13 03:49:22;;;;;;;34.73;19.27;;;;;;;;;;4976250;28;20415;-81
2024/03/13 03:51:48;;;;;;;37.67;21.07;;;;;;;;;;4975866;28;20412;-78
2024/03/13 03:54:14;;;;;;;32.03;19.53;;;;;;;;;;4976538;28;20881;-78
2024/03/13 03:56:40;;;;;;;32.33;19.50;;;;;;;;;;4976438;28;20448;-80
2024/03/13 03:59:08;;;;;;;36.43;20.77;;;;;;;;;;4976598;28;20506;-78
2024/03/13 04:01:33;;;;;;;33.40;20.77;;;;;;;;;;4975305;28;20828;-77
2024/03/13 04:04:00;;;;;;;35.77;21.30;;;;;;;;;;4976084;28;20422;-78
2024/03/13 04:06:26;;;;;;;36.00;21.63;;;;;;;;;;4976310;28;20929;-77
2024/03/13 04:08:52;;;;;;;36.27;20.73;;;;;;;;;;4976270;28;20515;-77
2024/03/13 04:11:19;;;;;;;39.93;21.13;;;;;;;;;;4976199;28;20447;-79
2024/03/13 04:13:46;;;;;;;35.60;20.37;;;;;;;;;;4976145;28;20928;-78
2024/03/13 04:16:14;;;;;;;37.00;20.17;;;;;;;;;;4974912;28;20479;-78
2024/03/13 04:18:43;;;;;;;40.23;21.47;;;;;;;;;;4975694;28;20480;-79
2024/03/13 04:21:08;;;;;;;32.90;20.37;;;;;;;;;;4976043;28;20443;-76
2024/03/13 04:23:34;;;;;;;34.13;20.53;;;;;;;;;;4976019;28;20446;-76
2024/03/13 04:26:02;;;;;;;39.77;22.23;;;;;;;;;;4974747;28;20463;-77
2024/03/13 04:28:28;;;;;;;41.67;20.60;;;;;;;;;;4976043;28;20814;-77
2024/03/13 04:30:54;;;;;;;33.17;21.83;;;;;;;;;;4974593;28;20445;-76
2024/03/13 04:33:20;;;;;;;39.73;21.67;;;;;;;;;;4975452;28;20449;-79
2024/03/13 04:35:46;;;;;;;33.63;20.60;;;;;;;;;;4975844;28;20423;-77
2024/03/13 04:38:15;;;;;;;39.73;21.40;;;;;;;;;;4975741;28;20517;-77
2024/03/13 04:40:44;;;;;;;50.93;20.23;;;;;;;;;;4975707;28;20418;-78
2024/03/13 04:43:10;;;;;;;48.57;21.00;;;;;;;;;;4975585;28;20417;-77
2024/03/13 04:45:39;;;;;;;74.50;23.03;;;;;;;;;;4975589;28;20929;-78
2024/03/13 04:48:05;;;;;;;78.80;24.60;;;;;;;;;;4975254;28;20508;-77
2024/03/13 04:50:34;;;;;;;129.27;28.13;;;;;;;;;;4975460;28;20404;-78
2024/03/13 04:53:00;;;;;;;118.93;26.63;;;;;;;;;;4975545;28;20420;-78
2024/03/13 04:55:29;;;;;;;68.67;21.53;;;;;;;;;;4975407;28;20458;-76
2024/03/13 04:57:56;;;;;;;112.93;27.13;;;;;;;;;;4975309;28;20475;-77
2024/03/13 05:00:22;;;;;;;126.37;28.00;;;;;;;;;;4975392;28;20854;-77
2024/03/13 05:02:48;;;;;;;93.87;23.07;;;;;;;;;;4974856;28;20548;-77
2024/03/13 05:05:14;;;;;;;166.80;31.73;;;;;;;;;;4975197;28;20430;-77
2024/03/13 05:07:41;;;;;;;151.80;29.47;;;;;;;;;;4975126;28;20419;-77
2024/03/13 05:10:09;;;;;;;100.30;24.93;;;;;;;;;;4975137;28;20507;-76
2024/03/13 05:12:36;;;;;;;98.33;23.90;;;;;;;;;;4975093;28;20423;-81
2024/03/13 05:15:03;;;;;;;108.93;25.77;;;;;;;;;;4975091;28;20425;-82
2024/03/13 05:17:29;;;;;;;53.00;22.47;;;;;;;;;;4974403;28;20522;-80
2024/03/13 05:19:56;;;;;;;58.50;20.77;;;;;;;;;;4973783;28;20441;-77
2024/03/13 05:22:22;;;;;;;54.03;22.30;;;;;;;;;;4974834;28;20423;-78
2024/03/13 05:24:49;;;;;;;50.23;20.70;;;;;;;;;;4974770;28;20426;-77
2024/03/13 05:27:15;;;;;;;45.00;18.30;;;;;;;;;;4974736;28;20459;-78
2024/03/13 05:29:41;;;;;;;48.30;18.53;;;;;;;;;;4974838;28;20478;-79
2024/03/13 05:32:07;;;;;;;46.10;20.30;;;;;;;;;;4974726;28;20419;-77
2024/03/13 05:34:37;;;;;;;47.20;23.50;;;;;;;;;;4973056;28;20781;-79
2024/03/13 05:37:03;;;;;;;39.80;20.33;;;;;;;;;;4974623;28;20490;-77
2024/03/13 05:39:30;;;;;;;42.33;19.17;;;;;;;;;;4974691;28;20420;-77
2024/03/13 05:41:55;;;;;;;43.37;21.80;;;;;;;;;;4974583;28;20433;-76
2024/03/13 05:44:21;;;;;;;37.10;21.97;;;;;;;;;;4974529;28;20429;-77
2024/03/13 05:46:48;;;;;;;34.43;18.73;;;;;;;;;;4974357;28;20767;-77
2024/03/13 05:49:17;;;;;;;36.30;20.67;;;;;;;;;;4974218;28;20467;-79
2024/03/13 05:51:43;;;;;;;44.83;22.33;;;;;;;;;;4974455;28;20540;-77
2024/03/13 05:54:09;;;;;;;41.30;21.90;;;;;;;;;;4973297;28;20419;-77
2024/03/13 05:56:37;;;;;;;45.03;23.70;;;;;;;;;;4974495;28;20430;-77
2024/03/13 05:59:03;;;;;;;41.00;20.40;;;;;;;;;;4974302;28;20471;-78
2024/03/13 06:01:29;;;;;;;37.90;22.13;;;;;;;;;;4974278;28;20910;-78
2024/03/13 06:03:56;;;;;;;41.40;20.83;;;;;;;;;;4974036;28;20417;-77
2024/03/13 06:06:22;;;;;;;46.30;23.27;;;;;;;;;;4974260;28;20413;-78
2024/03/13 06:08:48;;;;;;;40.00;21.53;;;;;;;;;;4974262;28;20416;-77
2024/03/13 06:11:18;;;;;;;47.63;25.10;;;;;;;;;;4974278;28;20832;-77
2024/03/13 06:13:44;;;;;;;45.93;21.90;;;;;;;;;;4976218;28;20918;-77
2024/03/13 06:16:10;;;;;;;45.67;23.50;;;;;;;;;;4980675;28;20407;-77
2024/03/13 06:18:36;;;;;;;46.50;24.47;;;;;;;;;;4980176;28;20540;-77
2024/03/13 06:21:03;;;;;;;45.90;24.87;;;;;;;;;;4980497;28;20414;-77
2024/03/13 06:23:29;;;;;;;44.77;22.67;;;;;;;;;;4980546;28;20413;-79
2024/03/13 06:25:58;;;;;;;44.43;24.07;;;;;;;;;;4980330;28;20537;-78
2024/03/13 06:31:08;;;;;;;44.27;22.73;;;;;;;;;;4980564;28;20467;-78
2024/03/13 06:33:34;;;;;;;48.07;24.80;;;;;;;;;;4980108;28;20908;-77
2024/03/13 06:36:00;;;;;;;47.13;24.33;;;;;;;;;;4980405;28;20411;-78
2024/03/13 06:38:26;;;;;;;47.53;22.47;;;;;;;;;;4980320;28;20887;-76
2024/03/13 06:40:52;;;;;;;45.97;24.60;;;;;;;;;;4980507;28;20414;-77
2024/03/13 06:43:18;;;;;;;40.70;21.97;;;;;;;;;;4980341;28;20423;-79
2024/03/13 06:45:47;;;;;;;39.00;21.40;;;;;;;;;;4980430;28;20411;-77
2024/03/13 06:48:13;;;;;;;58.57;26.80;;;;;;;;;;4979952;28;20474;-79
2024/03/13 06:50:39;;;;;;;46.63;26.40;;;;;;;;;;4980321;28;20494;-77
2024/03/13 06:53:06;;;;;;;51.27;25.77;;;;;;;;;;4980386;28;20420;-77
2024/03/13 06:55:32;;;;;;;45.20;25.33;;;;;;;;;;4980268;28;20446;-77
2024/03/13 06:57:57;;;;;;;40.70;23.80;;;;;;;;;;4980192;28;20503;-81
2024/03/13 07:00:27;;;;;;;43.87;24.43;;;;;;;;;;4980191;28;20865;-77
2024/03/13 07:02:55;;;;;;;40.17;22.90;;;;;;;;;;4980136;28;20922;-78
2024/03/13 07:05:22;;;;;;;41.83;24.67;;;;;;;;;;4980010;28;20419;-77
2024/03/13 07:07:48;;;;;;;37.87;23.70;;;;;;;;;;4980197;28;20453;-77
2024/03/13 07:10:15;;;;;;;37.70;22.03;;;;;;;;;;4980257;28;20494;-77
2024/03/13 07:12:41;;;;;;;33.97;21.57;;;;;;;;;;4980192;28;20500;-77
2024/03/13 07:15:10;;;;;;;32.67;20.30;;;;;;;;;;4980328;28;20429;-77
2024/03/13 07:17:37;;;;;;;28.67;18.77;;;;;;;;;;4979743;28;20982;-77
2024/03/13 07:20:12;;;;;;;31.50;20.43;;;;;;;;;;4980056;28;20433;-84
2024/03/13 07:22:38;;;;;;;32.07;18.70;;;;;;;;;;4980076;28;20534;-82
2024/03/13 07:25:09;;;;;;;25.00;17.10;;;;;;;;;;4977013;28;20466;-78
2024/03/13 07:27:35;;;;;;;26.10;18.70;;;;;;;;;;4975383;28;20499;-78
2024/03/13 07:30:01;;;;;;;29.80;19.27;;;;;;;;;;4976711;28;20499;-78
2024/03/13 07:32:27;;;;;;;30.33;19.90;;;;;;;;;;4976335;28;20426;-79
2024/03/13 07:34:53;;;;;;;26.90;18.23;;;;;;;;;;4976761;28;20423;-81
2024/03/13 07:37:19;;;;;;;28.60;19.23;;;;;;;;;;4976598;28;20868;-78
2024/03/13 07:39:48;;;;;;;32.80;20.37;;;;;;;;;;4976793;28;20664;-84
2024/03/13 07:42:15;;;;;;;28.40;20.03;;;;;;;;;;4976672;28;20463;-78
2024/03/13 07:44:40;;;;;;;28.10;20.37;;;;;;;;;;4976678;28;20425;-80
2024/03/13 07:47:06;;;;;;;28.93;18.13;;;;;;;;;;4976200;28;20420;-78
2024/03/13 07:49:33;;;;;;;28.60;19.93;;;;;;;;;;4976729;28;20638;-78
2024/03/13 07:52:01;;;;;;;28.40;17.83;;;;;;;;;;4976597;28;20502;-79
2024/03/13 07:54:28;;;;;;;28.20;18.13;;;;;;;;;;4976596;28;20927;-77
2024/03/13 07:56:54;;;;;;;27.43;19.70;;;;;;;;;;4976492;28;20428;-79
2024/03/13 07:59:25;;;;;;;26.37;18.03;;;;;;;;;;4976373;28;20431;-86
2024/03/13 08:01:51;;;;;;;26.43;19.00;;;;;;;;;;4976437;28;20416;-78
2024/03/13 08:04:17;;;;;;;23.63;16.37;;;;;;;;;;4975975;28;20419;-78
2024/03/13 08:06:43;;;;;;;27.70;20.10;;;;;;;;;;4976368;28;20901;-78
2024/03/13 08:09:09;;;;;;;22.27;15.00;;;;;;;;;;4975035;28;20434;-81
2024/03/13 08:11:34;;;;;;;23.73;17.87;;;;;;;;;;4976262;28;20260;-80
2024/03/13 08:14:03;;;;;;;25.93;19.83;;;;;;;;;;4976098;28;20421;-79
2024/03/13 08:16:29;;;;;;;25.93;17.80;;;;;;;;;;4974699;28;20501;-78
2024/03/13 08:18:55;;;;;;;23.17;15.50;;;;;;;;;;4975595;28;20567;-78
2024/03/13 08:21:21;;;;;;;29.20;19.20;;;;;;;;;;4976052;28;20185;-78
2024/03/13 08:23:47;;;;;;;28.10;18.20;;;;;;;;;;4975926;28;20234;-78
2024/03/13 08:26:13;;;;;;;29.03;19.70;;;;;;;;;;4975718;28;20212;-79
2024/03/13 08:28:40;;;;;;;25.10;18.70;;;;;;;;;;4975730;28;20459;-79
2024/03/13 08:31:06;;;;;;;24.60;16.73;;;;;;;;;;4975921;28;20451;-78
2024/03/13 08:33:32;;;;;;;26.93;18.27;;;;;;;;;;4975446;28;20461;-80
2024/03/13 08:36:02;;;;;;;25.90;17.30;;;;;;;;;;4974348;28;20432;-79
2024/03/13 08:38:28;;;;;;;23.97;17.33;;;;;;;;;;4975357;28;20482;-77
2024/03/13 08:40:54;;;;;;;25.87;18.50;;;;;;;;;;4974360;28;20785;-78
2024/03/13 08:43:21;;;;;;;25.30;17.67;;;;;;;;;;4975633;28;20423;-82
2024/03/13 08:45:47;;;;;;;23.10;16.63;;;;;;;;;;4975552;28;20413;-78
2024/03/13 08:48:13;;;;;;;28.07;17.53;;;;;;;;;;4974958;28;20432;-82
2024/03/13 08:50:40;;;;;;;21.83;16.90;;;;;;;;;;4975351;28;20173;-81
2024/03/13 08:53:06;;;;;;;22.60;16.77;;;;;;;;;;4975362;28;20431;-84
2024/03/13 08:55:35;;;;;;;23.70;17.87;;;;;;;;;;4975201;28;20772;-82
2024/03/13 08:58:03;;;;;;;24.73;17.10;;;;;;;;;;4975046;28;20482;-82
2024/03/13 09:00:29;;;;;;;23.13;14.40;;;;;;;;;;4975318;28;20513;-82
2024/03/13 09:02:57;;;;;;;23.23;15.90;;;;;;;;;;4973615;28;20570;-82
2024/03/13 09:05:23;;;;;;;26.13;16.10;;;;;;;;;;4975194;28;20194;-81
2024/03/13 09:07:49;;;;;;;22.17;15.93;;;;;;;;;;4975000;28;20572;-82
2024/03/13 09:10:18;;;;;;;23.40;15.97;;;;;;;;;;4975234;28;20427;-81
2024/03/13 09:12:45;;;;;;;21.20;16.07;;;;;;;;;;4975049;28;20775;-80
2024/03/13 09:15:11;;;;;;;22.47;15.70;;;;;;;;;;4975148;28;20824;-81
2024/03/13 09:17:37;;;;;;;21.13;14.20;;;;;;;;;;4974507;28;20499;-82
2024/03/13 09:20:07;;;;;;;19.93;14.73;;;;;;;;;;4973346;28;20442;-79
2024/03/13 09:22:33;;;;;;;20.80;14.70;;;;;;;;;;4974849;28;20418;-81
2024/03/13 09:24:59;;;;;;;22.30;13.83;;;;;;;;;;4973620;28;20428;-82
2024/03/13 09:27:25;;;;;;;22.03;14.50;;;;;;;;;;4974619;28;20460;-82
2024/03/13 09:29:54;;;;;;;17.97;13.20;;;;;;;;;;4974669;28;20405;-81
2024/03/13 09:32:23;;;;;;;19.43;13.57;;;;;;;;;;4974247;28;20415;-82
2024/03/13 09:34:50;;;;;;;19.30;13.90;;;;;;;;;;4974460;28;20417;-80
2024/03/13 09:37:17;;;;;;;19.83;13.57;;;;;;;;;;4973261;28;20460;-81
2024/03/13 09:39:43;;;;;;;20.60;14.03;;;;;;;;;;4974516;28;20406;-81
2024/03/13 09:42:20;;;;;;;18.50;14.10;;;;;;;;;;4974667;28;20403;-81
2024/03/13 09:44:47;;;;;;;17.43;12.80;;;;;;;;;;4974562;28;20754;-79
2024/03/13 09:47:13;;;;;;;17.30;12.70;;;;;;;;;;4974087;28;20492;-80
2024/03/13 09:49:43;;;;;;;18.67;12.77;;;;;;;;;;4973756;28;20447;-81
2024/03/13 09:52:12;;;;;;;17.23;12.73;;;;;;;;;;4974420;28;20415;-78
2024/03/13 09:54:39;;;;;;;20.70;13.03;;;;;;;;;;4974492;28;20418;-78
2024/03/13 09:57:05;;;;;;;15.80;11.63;;;;;;;;;;4973844;28;20784;-78
2024/03/13 09:59:31;;;;;;;17.33;12.50;;;;;;;;;;4973846;28;21137;-78
2024/03/13 10:01:58;;;;;;;18.00;12.10;;;;;;;;;;4971004;28;20424;-77
2024/03/13 10:04:25;;;;;;;15.40;11.53;;;;;;;;;;4973824;28;20203;-79
2024/03/13 10:06:56;;;;;;;16.13;11.83;;;;;;;;;;4973732;28;20462;-78
2024/03/13 10:09:28;;;;;;;16.80;12.30;;;;;;;;;;4973745;28;20417;-79
2024/03/13 10:11:57;;;;;;;16.33;11.67;;;;;;;;;;4973726;28;20953;-77
2024/03/13 10:14:23;;;;;;;17.20;12.30;;;;;;;;;;4973628;28;20421;-76
2024/03/13 10:16:52;;;;;;;18.03;13.10;;;;;;;;;;4973351;28;20514;-77
2024/03/13 10:19:21;;;;;;;15.03;11.93;;;;;;;;;;4973477;28;20458;-76
2024/03/13 10:21:47;;;;;;;15.87;11.90;;;;;;;;;;4973579;28;20408;-79
2024/03/13 10:24:14;;;;;;;13.50;10.97;;;;;;;;;;4973461;28;20433;-76
2024/03/13 10:26:41;;;;;;;13.23;8.50;;;;;;;;;;4973374;28;20439;-76
2024/03/13 10:29:08;;;;;;;13.43;10.17;;;;;;;;;;4973663;28;20478;-78
2024/03/13 10:31:34;;;;;;;12.23;10.43;;;;;;;;;;4973390;28;20403;-77
2024/03/13 10:34:00;;;;;;;14.53;10.07;;;;;;;;;;4970925;28;20415;-77
2024/03/13 10:36:26;;;;;;;13.70;9.47;;;;;;;;;;4973475;28;20478;-76
2024/03/13 10:38:53;;;;;;;12.10;9.73;;;;;;;;;;4973339;28;20260;-76
2024/03/13 10:41:19;;;;;;;12.97;9.70;;;;;;;;;;4973471;28;20964;-76
2024/03/13 10:43:46;;;;;;;12.97;10.10;;;;;;;;;;4973174;28;20431;-76
2024/03/13 10:46:12;;;;;;;12.23;8.63;;;;;;;;;;4973334;28;20420;-77
2024/03/13 10:48:41;;;;;;;13.20;8.80;;;;;;;;;;4972663;28;20419;-78
2024/03/13 10:51:14;;;;;;;14.30;10.30;;;;;;;;;;4973187;28;20416;-78
2024/03/13 10:53:40;;;;;;;14.33;8.73;;;;;;;;;;4971890;28;20443;-78
2024/03/13 10:56:13;;;;;;;13.00;9.60;;;;;;;;;;4973674;28;20418;-77
2024/03/13 10:58:39;;;;;;;14.37;10.87;;;;;;;;;;4973829;28;20557;-77
2024/03/13 11:01:05;;;;;;;15.50;9.00;;;;;;;;;;4975230;28;20503;-76
2024/03/13 11:03:31;;;;;;;13.10;8.80;;;;;;;;;;4977078;28;20182;-79
2024/03/13 11:06:00;;;;;;;14.70;9.40;;;;;;;;;;4977453;28;20453;-76
2024/03/13 11:08:27;;;;;;;18.20;10.50;;;;;;;;;;4977427;28;20214;-77
2024/03/13 11:10:55;;;;;;;18.73;10.20;;;;;;;;;;4977327;28;20410;-76
2024/03/13 11:13:24;;;;;;;17.90;10.80;;;;;;;;;;4977224;28;20923;-76
2024/03/13 11:15:51;;;;;;;14.20;10.27;;;;;;;;;;4977264;28;20473;-77
2024/03/13 11:18:17;;;;;;;14.30;9.23;;;;;;;;;;4976799;28;20481;-76
2024/03/13 11:20:57;;;;;;;12.10;8.80;;;;;;;;;;4977138;28;20410;-76
2024/03/13 11:23:29;;;;;;;15.20;9.57;;;;;;;;;;4973756;28;20968;-75
2024/03/13 11:26:01;;;;;;;16.77;10.80;;;;;;;;;;4975203;28;20427;-76
2024/03/13 11:28:29;;;;;;;12.37;8.90;;;;;;;;;;5011272;22;21526;-83
2024/03/13 11:30:56;;;;;;;13.33;9.70;;;;;;;;;;4994286;28;20428;-77
2024/03/13 11:33:24;;;;;;;17.60;11.40;;;;;;;;;;4995190;28;20509;-76
2024/03/13 11:35:50;;;;;;;11.90;7.67;;;;;;;;;;4992981;28;20411;-77
2024/03/13 11:38:17;;;;;;;11.00;8.00;;;;;;;;;;4996940;28;20989;-78
2024/03/13 11:40:44;;;;;;;13.97;9.87;;;;;;;;;;4995355;28;20884;-77
2024/03/13 11:43:10;;;;;;;13.07;8.70;;;;;;;;;;4992659;28;20452;-79
2024/03/13 11:45:43;;;;;;;10.73;8.07;;;;;;;;;;4995170;28;20907;-79
2024/03/13 11:48:13;;;;;;;12.10;8.97;;;;;;;;;;4978471;28;20434;-78
2024/03/13 11:50:59;;;;;;;12.67;8.57;;;;;;;;;;4994176;28;20428;-77
2024/03/13 11:53:25;;;;;;;14.13;9.17;;;;;;;;;;4995640;28;20853;-77
2024/03/13 11:55:53;;;;;;;12.40;8.53;;;;;;;;;;4995667;28;20549;-80
2024/03/13 11:58:20;;;;;;;9.47;6.93;;;;;;;;;;4995519;28;20554;-79
2024/03/13 12:00:50;;;;;;;10.17;7.93;;;;;;;;;;4995271;28;20412;-78
2024/03/13 12:03:16;;;;;;;9.47;7.43;;;;;;;;;;4994012;28;20536;-79
2024/03/13 12:05:42;;;;;;;10.57;7.50;;;;;;;;;;4995689;28;20408;-78
2024/03/13 12:08:17;;;;;;;11.43;6.97;;;;;;;;;;4995483;28;20417;-78
2024/03/13 12:10:50;;;;;;;11.77;7.93;;;;;;;;;;4995294;28;20546;-77
2024/03/13 12:13:17;;;;;;;9.60;6.60;;;;;;;;;;4994785;28;20485;-79
2024/03/13 12:15:46;;;;;;;12.13;7.20;;;;;;;;;;4978028;28;20418;-79
2024/03/13 12:18:12;;;;;;;11.97;7.60;;;;;;;;;;4975343;28;20482;-78
2024/03/13 12:20:41;;;;;;;13.80;7.13;;;;;;;;;;4975597;28;20410;-78
2024/03/13 12:23:07;;;;;;;12.10;7.10;;;;;;;;;;4975612;28;20457;-79
2024/03/13 12:25:33;;;;;;;8.77;6.20;;;;;;;;;;4975692;28;20431;-82
2024/03/13 12:28:00;;;;;;;9.77;6.73;;;;;;;;;;4975619;28;20492;-79
2024/03/13 12:30:29;;;;;;;11.30;7.27;;;;;;;;;;4975203;28;20500;-82
2024/03/13 12:32:59;;;;;;;12.00;7.63;;;;;;;;;;4974931;28;20457;-79
2024/03/13 12:35:25;;;;;;;11.23;8.23;;;;;;;;;;4975594;28;20413;-78
2024/03/13 12:37:53;;;;;;;10.20;6.37;;;;;;;;;;4975320;28;20497;-78
2024/03/13 12:40:20;;;;;;;11.97;7.30;;;;;;;;;;4975283;28;20405;-80
2024/03/13 12:42:50;;;;;;;9.50;6.90;;;;;;;;;;4975174;28;20412;-78
2024/03/13 12:45:16;;;;;;;11.80;7.50;;;;;;;;;;4975323;28;20416;-78
2024/03/13 12:47:42;;;;;;;13.60;8.33;;;;;;;;;;4974937;28;20421;-78
2024/03/13 12:50:12;;;;;;;13.30;9.70;;;;;;;;;;4975267;28;20420;-80
2024/03/13 12:52:41;;;;;;;12.07;8.37;;;;;;;;;;4978534;28;20423;-78
2024/03/13 12:55:08;;;;;;;13.90;8.20;;;;;;;;;;4992448;28;20481;-79
2024/03/13 12:57:37;;;;;;;14.27;9.00;;;;;;;;;;4993714;28;20451;-78
2024/03/13 13:00:13;;;;;;;14.30;8.47;;;;;;;;;;4993140;28;20835;-78
2024/03/13 13:02:39;;;;;;;14.20;8.63;;;;;;;;;;4991995;28;20422;-84
2024/03/13 13:05:05;;;;;;;12.40;7.27;;;;;;;;;;4993409;28;20440;-78
2024/03/13 13:07:32;;;;;;;12.90;7.80;;;;;;;;;;4993765;28;20427;-77
2024/03/13 13:09:58;;;;;;;13.43;8.27;;;;;;;;;;4993706;28;20450;-80
2024/03/13 13:12:26;;;;;;;14.17;8.47;;;;;;;;;;4990738;28;20423;-84
2024/03/13 13:14:52;;;;;;;14.40;9.50;;;;;;;;;;4993331;28;20420;-78
2024/03/13 13:17:18;;;;;;;14.27;9.63;;;;;;;;;;4992056;28;20504;-82
2024/03/13 13:19:44;;;;;;;12.17;8.00;;;;;;;;;;4993498;28;20821;-84
2024/03/13 13:22:12;;;;;;;16.03;9.50;;;;;;;;;;4993512;28;20416;-77
2024/03/13 13:24:38;;;;;;;15.30;9.60;;;;;;;;;;4992199;28;20774;-79
2024/03/13 13:27:04;;;;;;;15.10;9.70;;;;;;;;;;4993768;28;20482;-79
2024/03/13 13:29:30;;;;;;;17.77;8.50;;;;;;;;;;4993911;28;20980;-82
2024/03/13 13:31:57;;;;;;;12.87;9.90;;;;;;;;;;4993532;28;20421;-80
2024/03/13 13:34:23;;;;;;;14.80;9.43;;;;;;;;;;4993828;28;20417;-80
2024/03/13 13:36:50;;;;;;;12.10;8.33;;;;;;;;;;4993828;28;20426;-80
2024/03/13 13:39:19;;;;;;;12.10;8.27;;;;;;;;;;4993747;28;20480;-78
2024/03/13 13:41:46;;;;;;;12.20;7.93;;;;;;;;;;4993779;28;20420;-80
2024/03/13 13:44:12;;;;;;;13.37;8.73;;;;;;;;;;4993617;28;20418;-83
2024/03/13 13:46:38;;;;;;;12.30;7.80;;;;;;;;;;4975410;28;20501;-84
2024/03/13 13:49:06;;;;;;;15.20;8.60;;;;;;;;;;4975448;28;20431;-82
2024/03/13 13:51:33;;;;;;;13.30;9.50;;;;;;;;;;4992877;28;20420;-83
2024/03/13 13:53:59;;;;;;;13.60;9.53;;;;;;;;;;4993475;28;20426;-83
2024/03/13 13:56:25;;;;;;;11.50;7.10;;;;;;;;;;4993588;28;20408;-83
2024/03/13 13:58:51;;;;;;;11.80;8.10;;;;;;;;;;4993395;28;20313;-78
2024/03/13 14:01:19;;;;;;;11.80;9.30;;;;;;;;;;4993206;28;20495;-78
2024/03/13 14:03:45;;;;;;;13.13;8.60;;;;;;;;;;4993468;28;20814;-78
2024/03/13 14:06:11;;;;;;;11.07;7.67;;;;;;;;;;4993374;28;20401;-79
2024/03/13 14:08:38;;;;;;;10.43;6.60;;;;;;;;;;4993088;28;20800;-78
2024/03/13 14:11:06;;;;;;;11.20;7.27;;;;;;;;;;4993276;28;20846;-77
2024/03/13 14:13:38;;;;;;;10.90;8.10;;;;;;;;;;4993362;28;20420;-79
2024/03/13 14:16:04;;;;;;;11.70;7.90;;;;;;;;;;4993091;28;20455;-77
2024/03/13 14:18:31;;;;;;;10.60;7.10;;;;;;;;;;4992995;28;20475;-80
2024/03/13 14:20:57;;;;;;;11.03;8.33;;;;;;;;;;4993113;28;20411;-79
2024/03/13 14:23:23;;;;;;;11.07;6.50;;;;;;;;;;4993220;28;20927;-78
2024/03/13 14:25:49;;;;;;;12.90;8.13;;;;;;;;;;4993094;28;20185;-78
2024/03/13 14:28:15;;;;;;;12.20;7.47;;;;;;;;;;4993021;28;20423;-79
2024/03/13 14:30:41;;;;;;;12.27;8.07;;;;;;;;;;4991879;28;20477;-79
2024/03/13 14:33:06;;;;;;;12.13;8.20;;;;;;;;;;4992810;28;20427;-82
2024/03/13 14:35:32;;;;;;;11.63;7.27;;;;;;;;;;4995308;28;20451;-79
2024/03/13 14:37:58;;;;;;;13.50;8.13;;;;;;;;;;4996505;28;20300;-80
2024/03/13 14:40:24;;;;;;;9.77;6.93;;;;;;;;;;4997043;28;20424;-79
2024/03/13 14:42:51;;;;;;;11.83;8.33;;;;;;;;;;4996984;28;20419;-79